Time;durP1;ratioP1;P1;durP2;ratioP2;P2;SDS_P1;SDS_P2;PMS_P1;PMS_P2;Temp;Humidity;BMP_temperature;BMP_pressure;BME280_temperature;BME280_humidity;BME280_pressure;Samples;Min_cycle;Max_cycle;Signal;HPM_P1;HPM_P2
2022/09/07 00:02:10;;;;;;;;;2.67;2.67;;;;;23.00;56.04;100874.25;5018952;28;48625;-69
2022/09/07 00:04:35;;;;;;;;;6.67;2.67;;;;;22.92;55.69;100864.53;5019294;28;45411;-69
2022/09/07 00:07:01;;;;;;;;;4.00;2.67;;;;;23.01;55.85;100876.72;5019408;28;45437;-69
2022/09/07 00:09:26;;;;;;;;;5.67;2.00;;;;;22.85;56.08;100857.50;5019191;28;45388;-69
2022/09/07 00:11:51;;;;;;;;;2.00;2.00;;;;;22.95;56.01;100871.38;5019002;28;45416;-69
2022/09/07 00:14:16;;;;;;;;;2.00;2.00;;;;;22.92;56.29;100874.53;5018859;28;45258;-69
2022/09/07 00:16:42;;;;;;;;;3.00;3.00;;;;;22.66;56.59;100857.41;5018694;28;45353;-69
2022/09/07 00:19:07;;;;;;;;;2.00;2.00;;;;;22.67;56.86;100853.66;5019292;28;45438;-69
2022/09/07 00:21:32;;;;;;;;;3.00;3.00;;;;;22.83;56.92;100878.59;5018808;28;45940;-69
2022/09/07 00:23:58;;;;;;;;;3.00;2.00;;;;;22.80;57.03;100870.84;5018996;28;45319;-69
2022/09/07 00:26:27;;;;;;;;;4.67;3.67;;;;;22.82;56.80;100879.63;5019707;28;45404;-69
2022/09/07 00:28:56;;;;;;;;;4.33;3.00;;;;;22.52;57.29;100830.63;5018845;28;45331;-69
2022/09/07 00:31:22;;;;;;;;;5.00;3.00;;;;;22.72;57.24;100874.66;5018473;28;45597;-69
2022/09/07 00:33:50;;;;;;;;;4.67;3.00;;;;;22.70;57.74;100872.19;5018203;28;45471;-70
2022/09/07 00:36:17;;;;;;;;;3.00;3.00;;;;;22.72;57.94;100880.91;5017379;28;45408;-69
2022/09/07 00:38:43;;;;;;;;;4.00;2.67;;;;;22.67;58.31;100888.06;5018411;28;45282;-68
2022/09/07 00:41:09;;;;;;;;;4.00;4.00;;;;;22.60;58.25;100865.56;5018054;28;46649;-69
2022/09/07 00:43:44;;;;;;;;;3.67;3.67;;;;;22.66;57.87;100875.56;5018494;28;45282;-68
2022/09/07 00:46:22;;;;;;;;;4.00;4.00;;;;;22.50;57.86;100849.00;5018315;28;45172;-69
2022/09/07 00:48:59;;;;;;;;;4.67;2.00;;;;;22.68;57.85;100870.75;5017097;28;45411;-68
2022/09/07 00:51:32;;;;;;;;;3.00;3.00;;;;;22.67;57.59;100875.34;5018199;28;45905;-67
2022/09/07 00:54:04;;;;;;;;;3.00;2.67;;;;;22.35;57.62;100827.63;5016346;28;45253;-68
2022/09/07 00:56:34;;;;;;;;;1.67;1.67;;;;;22.51;57.77;100867.75;5018028;28;45396;-68
2022/09/07 00:59:00;;;;;;;;;4.33;3.00;;;;;22.33;58.29;100852.22;5018232;28;45416;-68
2022/09/07 01:01:26;;;;;;;;;6.00;4.67;;;;;22.43;58.55;100886.97;5017888;28;46364;-68
2022/09/07 01:03:54;;;;;;;;;3.00;3.00;;;;;22.36;58.54;100869.91;5018123;28;45332;-68
2022/09/07 01:06:27;;;;;;;;;5.00;3.67;;;;;22.20;58.94;100843.34;5018308;28;45274;-68
2022/09/07 01:08:55;;;;;;;;;3.67;3.67;;;;;22.32;59.08;100863.28;5018259;28;45460;-69
2022/09/07 01:11:21;;;;;;;;;7.00;3.67;;;;;21.04;59.05;100664.94;5018023;28;45742;-67
2022/09/07 01:13:48;;;;;;;;;4.00;4.00;;;;;22.44;58.71;100866.97;5017926;28;45352;-68
2022/09/07 01:16:46;;;;;;;;;4.00;2.67;;;;;21.93;58.42;100774.97;5017916;28;45427;-68
2022/09/07 01:19:50;;;;;;;;;4.00;4.00;;;;;22.37;58.86;100849.91;5018096;28;45492;-68
2022/09/07 01:22:50;;;;;;;;;4.67;3.67;;;;;22.05;59.18;100798.47;5024140;28;46443;-68
2022/09/07 01:25:41;;;;;;;;;3.33;2.67;;;;;22.48;59.46;100864.66;5017626;28;45509;-69
2022/09/07 01:28:28;;;;;;;;;3.00;3.00;;;;;22.09;59.82;100843.00;5017919;28;45165;-69
2022/09/07 01:30:57;;;;;;;;;5.33;4.33;;;;;22.34;59.66;100869.31;5017956;28;45258;-69
2022/09/07 01:33:42;;;;;;;;;5.33;3.67;;;;;22.32;59.49;100855.16;5017255;28;47339;-68
2022/09/07 01:36:26;;;;;;;;;5.33;3.67;;;;;22.39;59.12;100859.47;5017479;28;45329;-69
2022/09/07 01:39:00;;;;;;;;;3.00;3.00;;;;;22.32;58.81;100863.28;5017981;28;45486;-68
2022/09/07 01:41:32;;;;;;;;;5.67;4.00;;;;;22.24;59.16;100855.44;5017852;28;45197;-69
2022/09/07 01:44:10;;;;;;;;;3.00;3.00;;;;;22.11;58.85;100846.31;5016083;28;46737;-68
2022/09/07 01:46:46;;;;;;;;;4.00;3.00;;;;;21.99;59.37;100847.19;5017365;28;45282;-69
2022/09/07 01:49:24;;;;;;;;;3.33;3.33;;;;;22.07;59.46;100855.94;5017200;28;45554;-68
2022/09/07 01:51:59;;;;;;;;;4.67;3.00;;;;;22.03;59.98;100865.50;5017559;28;45391;-69
2022/09/07 01:54:46;;;;;;;;;3.00;3.00;;;;;21.95;59.82;100862.22;5017016;28;45636;-69
2022/09/07 01:57:17;;;;;;;;;2.25;2.25;;;;;21.79;59.73;100864.34;5017091;28;46096;-69
2022/09/07 01:59:52;;;;;;;;;2.33;2.33;;;;;21.82;60.17;100857.66;5017362;28;45307;-69
2022/09/07 02:02:27;;;;;;;;;3.67;2.67;;;;;21.80;59.52;100859.75;5017628;28;45520;-69
2022/09/07 02:05:05;;;;;;;;;6.00;3.00;;;;;21.75;59.82;100865.00;5015589;28;46435;-69
2022/09/07 02:07:41;;;;;;;;;3.00;3.00;;;;;20.75;59.64;100680.59;5017039;28;45391;-69
2022/09/07 02:10:21;;;;;;;;;3.00;2.00;;;;;21.85;59.68;100860.81;5017414;28;45392;-70
2022/09/07 02:12:58;;;;;;;;;4.00;4.00;;;;;21.79;59.79;100856.22;5019965;28;45135;-69
2022/09/07 02:15:37;;;;;;;;;4.00;2.00;;;;;21.58;60.48;100823.22;5017535;28;46773;-69
2022/09/07 02:18:06;;;;;;;;;3.00;3.00;;;;;21.69;60.15;100841.50;5017021;28;45266;-68
2022/09/07 02:20:36;;;;;;;;;3.00;3.00;;;;;21.15;60.33;100750.75;5017195;28;45166;-68
2022/09/07 02:23:10;;;;;;;;;2.33;2.33;;;;;21.70;60.00;100841.28;5017277;28;45258;-68
2022/09/07 02:25:41;;;;;;;;;1.00;1.00;;;;;21.68;59.65;100850.69;5016883;28;46582;-68
2022/09/07 02:28:11;;;;;;;;;2.33;2.33;;;;;21.60;59.79;100848.19;5017030;28;45537;-69
2022/09/07 02:30:37;;;;;;;;;2.00;2.00;;;;;21.59;59.35;100849.25;5017249;28;45573;-68
2022/09/07 02:33:03;;;;;;;;;4.00;2.00;;;;;21.60;59.68;100854.44;5015674;28;45607;-70
2022/09/07 02:35:28;;;;;;;;;2.00;2.00;;;;;21.56;60.06;100851.31;5015541;28;47650;-69
2022/09/07 02:37:55;;;;;;;;;5.67;2.00;;;;;21.41;59.75;100822.88;5016702;28;45213;-69
2022/09/07 02:40:20;;;;;;;;;2.00;2.00;;;;;21.58;59.69;100853.81;5016924;28;45258;-68
2022/09/07 02:42:47;;;;;;;;;2.00;2.00;;;;;21.51;59.94;100855.72;5017264;28;45284;-68
2022/09/07 02:45:15;;;;;;;;;2.33;2.33;;;;;21.34;59.51;100828.31;5016469;28;46585;-69
2022/09/07 02:48:01;;;;;;;;;3.25;2.00;;;;;21.48;59.99;100866.97;5016684;28;45420;-68
2022/09/07 02:50:44;;;;;;;;;4.00;2.50;;;;;21.44;59.71;100849.50;5016594;28;45458;-68
2022/09/07 02:53:46;;;;;;;;;3.00;2.00;;;;;21.40;60.03;100848.25;5017045;28;45285;-68
2022/09/07 02:56:27;;;;;;;;;3.00;3.00;;;;;21.39;59.66;100847.44;5014580;28;46371;-69
2022/09/07 02:59:11;;;;;;;;;3.00;3.00;;;;;21.33;59.48;100848.28;5017327;28;45575;-69
2022/09/07 03:01:54;;;;;;;;;2.00;2.00;;;;;21.29;59.43;100852.47;5020211;28;45333;-69
2022/09/07 03:04:53;;;;;;;;;3.00;2.00;;;;;21.28;59.41;100858.91;5020170;28;45483;-69
2022/09/07 03:07:29;;;;;;;;;2.00;2.00;;;;;21.08;59.47;100829.19;5019991;28;46637;-69
2022/09/07 03:09:57;;;;;;;;;3.00;2.00;;;;;20.72;59.18;100763.94;5019939;28;45218;-68
2022/09/07 03:12:22;;;;;;;;;1.00;1.00;;;;;21.21;59.43;100849.94;5020144;28;45332;-68
2022/09/07 03:14:48;;;;;;;;;2.33;2.33;;;;;21.23;59.21;100843.28;5019984;28;45507;-69
2022/09/07 03:17:14;;;;;;;;;2.00;2.00;;;;;20.63;59.19;100760.66;5019610;28;45751;-69
2022/09/07 03:19:39;;;;;;;;;2.67;1.33;;;;;21.20;59.09;100859.09;5019665;28;45479;-70
2022/09/07 03:22:05;;;;;;;;;2.00;2.00;;;;;20.71;59.08;100792.84;5019807;28;45273;-70
2022/09/07 03:24:30;;;;;;;;;1.33;1.33;;;;;21.13;58.96;100856.41;5020059;28;45293;-73
2022/09/07 03:26:56;;;;;;;;;3.00;3.00;;;;;21.01;59.13;100849.97;5019588;28;46179;-70
2022/09/07 03:29:22;;;;;;;;;3.00;3.00;;;;;20.65;58.88;100815.28;5019713;28;45373;-71
2022/09/07 03:31:48;;;;;;;;;2.00;1.00;;;;;20.87;59.00;100859.97;5019193;28;45274;-71
2022/09/07 03:34:15;;;;;;;;;3.67;2.00;;;;;20.98;58.91;100871.19;5019775;28;45208;-69
2022/09/07 03:36:40;;;;;;;;;1.67;1.67;;;;;20.70;59.09;100826.31;5023588;28;45715;-70
2022/09/07 03:39:06;;;;;;;;;1.67;0.67;;;;;20.93;59.36;100864.53;5031284;28;45451;-69
2022/09/07 03:41:32;;;;;;;;;1.33;1.00;;;;;20.94;59.43;100863.50;5037949;28;45315;-69
2022/09/07 03:44:04;;;;;;;;;2.00;2.00;;;;;20.70;59.51;100826.31;5039580;28;45384;-70
2022/09/07 03:46:30;;;;;;;;;2.00;2.00;;;;;20.59;59.30;100819.63;5039005;28;46968;-70
2022/09/07 03:48:55;;;;;;;;;3.67;2.00;;;;;20.90;59.15;100870.34;5038113;28;45213;-70
2022/09/07 03:51:20;;;;;;;;;2.00;2.00;;;;;20.79;59.11;100860.16;5035328;28;45495;-70
2022/09/07 03:53:46;;;;;;;;;5.00;3.00;;;;;20.86;59.29;100871.00;5037807;28;45535;-70
2022/09/07 03:56:16;;;;;;;;;3.00;2.00;;;;;20.88;59.66;100879.72;5040760;28;46285;-70
2022/09/07 03:58:42;;;;;;;;;2.00;2.00;;;;;20.83;59.57;100869.53;5046314;28;45241;-69
2022/09/07 04:01:11;;;;;;;;;3.00;2.00;;;;;20.50;59.70;100825.47;5043805;28;45268;-70
2022/09/07 04:03:38;;;;;;;;;2.67;2.67;;;;;20.79;59.79;100873.69;5038700;28;45683;-69
2022/09/07 04:06:04;;;;;;;;;4.00;2.67;;;;;20.77;60.11;100885.72;5022723;28;45415;-69
2022/09/07 04:08:32;;;;;;;;;2.00;1.33;;;;;20.70;60.04;100890.31;5018840;28;45367;-69
2022/09/07 04:10:59;;;;;;;;;3.00;1.33;;;;;20.69;59.85;100889.47;5018878;28;45201;-69
2022/09/07 04:13:26;;;;;;;;;3.67;1.33;;;;;20.61;60.25;100895.06;5018962;28;45466;-70
2022/09/07 04:15:52;;;;;;;;;2.00;2.00;;;;;20.10;60.26;100828.06;5034056;28;47724;-71
2022/09/07 04:18:18;;;;;;;;;4.00;3.00;;;;;20.41;60.56;100896.91;5018971;28;45466;-70
2022/09/07 04:20:43;;;;;;;;;4.50;3.00;;;;;20.35;60.67;100899.34;5019088;28;45339;-71
2022/09/07 04:23:09;;;;;;;;;5.00;2.00;;;;;19.91;60.49;100815.38;5018288;28;45321;-70
2022/09/07 04:25:34;;;;;;;;;3.00;3.00;;;;;20.24;60.62;100869.44;5018457;28;46951;-69
2022/09/07 04:28:00;;;;;;;;;1.00;1.00;;;;;20.38;60.31;100886.47;5018649;28;45297;-70
2022/09/07 04:30:25;;;;;;;;;3.00;2.00;;;;;20.47;60.49;100907.75;5018719;28;45301;-70
2022/09/07 04:32:50;;;;;;;;;3.00;3.00;;;;;20.51;60.27;100913.56;5019014;28;45159;-70
2022/09/07 04:35:16;;;;;;;;;4.00;2.33;;;;;20.45;60.14;100895.47;5035270;28;49070;-70
2022/09/07 04:37:41;;;;;;;;;3.00;1.00;;;;;20.41;60.16;100895.03;5031649;28;45273;-70
2022/09/07 04:40:07;;;;;;;;;3.00;2.00;;;;;20.34;60.11;100889.59;5054172;28;45442;-70
2022/09/07 04:42:33;;;;;;;;;4.00;2.00;;;;;20.51;59.92;100910.84;5038742;28;45441;-71
2022/09/07 04:44:58;;;;;;;;;2.00;2.00;;;;;20.31;59.85;100864.88;5037598;28;45487;-69
2022/09/07 04:47:24;;;;;;;;;2.00;2.00;;;;;20.50;59.83;100901.09;5038097;28;45356;-71
2022/09/07 04:49:50;;;;;;;;;12.00;8.00;;;;;20.44;60.45;100891.13;5038611;28;45323;-70
2022/09/07 04:52:16;;;;;;;;;2.00;2.00;;;;;20.50;60.17;100895.69;5037942;28;45452;-69
2022/09/07 04:54:42;;;;;;;;;2.00;2.00;;;;;20.50;60.49;100912.72;5037634;28;46430;-69
2022/09/07 04:57:10;;;;;;;;;2.00;2.00;;;;;20.26;60.58;100879.00;5036276;28;45508;-70
2022/09/07 04:59:35;;;;;;;;;2.33;2.33;;;;;20.46;60.22;100899.84;5038474;28;45276;-70
2022/09/07 05:02:01;;;;;;;;;1.33;1.33;;;;;20.43;60.19;100895.69;5037266;28;45374;-70
2022/09/07 05:04:26;;;;;;;;;5.67;3.00;;;;;20.52;60.12;100893.59;5030493;28;46484;-71
2022/09/07 05:06:53;;;;;;;;;3.00;1.33;;;;;20.56;60.30;100908.38;5016581;28;53591;-70
2022/09/07 05:09:18;;;;;;;;;2.00;2.00;;;;;20.36;60.61;100889.38;5018285;28;45495;-71
2022/09/07 05:11:43;;;;;;;;;3.00;2.00;;;;;20.42;60.58;100904.78;5018102;28;45167;-69
2022/09/07 05:14:09;;;;;;;;;2.00;2.00;;;;;20.26;60.34;100876.28;5018477;28;45549;-70
2022/09/07 05:16:34;;;;;;;;;1.00;1.00;;;;;20.44;60.49;100908.16;5017796;28;45462;-70
2022/09/07 05:19:02;;;;;;;;;3.00;1.00;;;;;20.50;60.63;100914.59;5017986;28;45256;-71
2022/09/07 05:21:31;;;;;;;;;2.00;2.00;;;;;20.50;60.44;100923.53;5028352;28;45324;-70
2022/09/07 05:23:57;;;;;;;;;2.67;1.00;;;;;20.29;60.47;100889.38;5024280;28;46752;-70
2022/09/07 05:26:25;;;;;;;;;6.00;4.67;;;;;20.41;60.45;100902.31;5035540;28;45501;-71
2022/09/07 05:28:51;;;;;;;;;3.00;3.00;;;;;20.49;60.38;100915.63;5052783;28;45536;-70
2022/09/07 05:31:19;;;;;;;;;2.00;2.00;;;;;20.59;60.21;100921.47;5036700;28;45527;-69
2022/09/07 05:33:50;;;;;;;;;1.67;1.67;;;;;20.62;59.85;100926.44;5033786;28;45729;-72
2022/09/07 05:36:16;;;;;;;;;2.33;2.33;;;;;20.00;60.21;100835.72;5035082;28;45412;-69
2022/09/07 05:38:41;;;;;;;;;4.00;2.00;;;;;20.57;60.14;100923.53;5018588;28;45277;-72
2022/09/07 05:41:18;;;;;;;;;3.33;2.00;;;;;20.59;60.04;100921.47;5017850;28;45301;-71
2022/09/07 05:43:44;;;;;;;;;4.00;3.00;;;;;20.50;59.90;100903.78;5017326;28;46736;-70
2022/09/07 05:46:10;;;;;;;;;5.00;3.00;;;;;20.49;59.86;100899.44;5036172;28;45492;-71
2022/09/07 05:48:37;;;;;;;;;3.33;3.33;;;;;20.75;59.59;100920.22;5040056;28;45312;-73
2022/09/07 05:51:03;;;;;;;;;7.67;4.00;;;;;20.23;59.33;100821.88;5038298;28;45492;-70
2022/09/07 05:53:29;;;;;;;;;4.67;3.00;;;;;20.76;59.43;100903.81;5037251;28;45220;-71
2022/09/07 05:55:58;;;;;;;;;2.33;2.33;;;;;20.93;59.06;100924.00;5037515;28;45470;-70
2022/09/07 05:58:24;;;;;;;;;3.00;3.00;;;;;20.82;58.90;100897.59;5036709;28;45410;-73
2022/09/07 06:00:49;;;;;;;;;3.33;2.00;;;;;20.75;58.75;100883.25;5037166;28;45520;-70
2022/09/07 06:03:15;;;;;;;;;2.00;2.00;;;;;21.03;58.94;100928.16;5037000;28;47931;-69
2022/09/07 06:05:40;;;;;;;;;5.00;2.67;;;;;21.02;59.02;100935.41;5036725;28;45434;-71
2022/09/07 06:08:05;;;;;;;;;3.33;3.00;;;;;20.94;58.76;100920.25;5036810;28;45984;-69
2022/09/07 06:10:36;;;;;;;;;4.67;4.00;;;;;21.03;58.84;100936.28;5037154;28;45187;-71
2022/09/07 06:13:03;;;;;;;;;2.00;2.00;;;;;20.88;58.76;100926.50;5036475;28;45932;-71
2022/09/07 06:15:28;;;;;;;;;2.67;2.33;;;;;20.81;58.96;100909.41;5036714;28;45359;-70
2022/09/07 06:17:53;;;;;;;;;2.00;2.00;;;;;20.98;59.05;100933.34;5035316;28;45320;-70
2022/09/07 06:20:19;;;;;;;;;3.67;3.67;;;;;21.02;59.00;100934.59;5022245;28;45430;-70
2022/09/07 06:22:44;;;;;;;;;4.00;4.00;;;;;21.07;58.90;100921.31;5040267;28;48207;-71
2022/09/07 06:25:09;;;;;;;;;1.00;1.00;;;;;20.92;59.04;100905.28;5017344;28;45289;-71
2022/09/07 06:27:35;;;;;;;;;2.33;2.00;;;;;21.22;58.79;100944.38;5016763;28;45294;-67
2022/09/07 06:30:01;;;;;;;;;5.33;2.00;;;;;21.28;58.06;100915.69;5017159;28;45348;-68
2022/09/07 06:32:26;;;;;;;;;5.00;3.67;;;;;21.46;57.77;100928.56;5016445;28;46006;-68
2022/09/07 06:34:52;;;;;;;;;3.67;3.00;;;;;21.31;57.85;100906.34;5015374;28;45516;-68
2022/09/07 06:37:17;;;;;;;;;2.00;2.00;;;;;21.66;57.64;100945.59;5016426;28;45451;-68
2022/09/07 06:39:43;;;;;;;;;3.67;3.67;;;;;21.89;57.17;100950.53;5016895;28;45361;-67
2022/09/07 06:42:08;;;;;;;;;6.33;3.00;;;;;22.11;55.88;100924.84;5026609;28;46702;-67
2022/09/07 06:44:34;;;;;;;;;5.00;3.67;;;;;22.57;54.98;100931.88;5020185;28;45273;-67
2022/09/07 06:46:59;;;;;;;;;3.00;3.00;;;;;22.98;54.33;100936.00;5019524;28;45630;-67
2022/09/07 06:49:25;;;;;;;;;2.33;2.33;;;;;22.91;53.78;100845.78;5026257;28;45437;-71
2022/09/07 06:51:50;;;;;;;;;3.67;2.33;;;;;24.04;51.78;100932.25;5016133;28;46423;-70
2022/09/07 06:54:16;;;;;;;;;3.33;3.00;;;;;24.78;49.63;100939.19;5015975;28;45248;-68
2022/09/07 06:56:42;;;;;;;;;3.00;3.00;;;;;25.38;48.10;100930.88;5016387;28;45479;-67
2022/09/07 06:59:08;;;;;;;;;3.00;1.00;;;;;25.78;47.34;100950.88;5016228;28;45448;-68
2022/09/07 07:01:33;;;;;;;;;5.00;2.00;;;;;26.24;46.38;100927.31;5017487;28;46809;-69
2022/09/07 07:04:00;;;;;;;;;5.00;3.00;;;;;26.61;45.12;100910.56;5036030;28;45328;-69
2022/09/07 07:06:33;;;;;;;;;3.33;3.33;;;;;27.06;44.07;100935.13;5028425;28;45507;-68
2022/09/07 07:08:59;;;;;;;;;2.33;2.33;;;;;26.89;43.88;100885.97;5018947;28;45526;-68
2022/09/07 07:11:24;;;;;;;;;2.00;2.00;;;;;27.45;43.29;100908.69;5025173;28;45941;-70
2022/09/07 07:13:50;;;;;;;;;3.00;2.33;;;;;27.43;42.54;100913.56;5015579;28;45496;-68
2022/09/07 07:16:16;;;;;;;;;5.00;5.00;;;;;27.24;43.33;100920.38;5032932;28;45316;-69
2022/09/07 07:18:42;;;;;;;;;6.67;6.67;;;;;27.26;43.10;100923.69;5036079;28;45364;-68
2022/09/07 07:21:13;;;;;;;;;3.33;2.33;;;;;27.04;43.51;100920.06;5042153;28;46790;-67
2022/09/07 07:23:39;;;;;;;;;3.00;3.00;;;;;26.61;44.17;100922.28;5055665;28;45365;-69
2022/09/07 07:26:15;;;;;;;;;4.00;4.00;;;;;26.25;44.61;100906.34;5055665;28;45470;-69
2022/09/07 07:28:48;;;;;;;;;5.00;3.00;;;;;25.90;45.58;100928.25;5036491;28;45454;-68
2022/09/07 07:31:19;;;;;;;;;5.33;3.67;;;;;25.42;46.15;100892.06;5035266;28;47004;-68
2022/09/07 07:33:46;;;;;;;;;2.33;2.33;;;;;25.75;46.43;100923.31;5034927;28;45244;-67
2022/09/07 07:36:15;;;;;;;;;4.00;2.67;;;;;25.62;46.23;100908.00;5035789;28;45482;-68
2022/09/07 07:38:42;;;;;;;;;5.33;3.00;;;;;25.56;46.48;100908.97;5035486;28;45517;-68
2022/09/07 07:41:08;;;;;;;;;2.00;2.00;;;;;25.55;46.50;100911.94;5034924;28;45558;-68
2022/09/07 07:43:33;;;;;;;;;3.00;2.00;;;;;25.25;46.73;100891.16;5033718;28;45474;-69
2022/09/07 07:45:59;;;;;;;;;6.67;6.67;;;;;25.23;47.50;100917.78;5037348;28;45402;-69
2022/09/07 07:48:25;;;;;;;;;4.33;3.00;;;;;24.85;47.46;100872.75;5037601;28;45486;-68
2022/09/07 07:51:02;;;;;;;;;6.33;5.00;;;;;24.94;48.13;100922.19;5038620;28;45735;-68
2022/09/07 07:53:28;;;;;;;;;6.33;3.00;;;;;24.68;48.34;100884.56;5038444;28;45430;-69
2022/09/07 07:55:58;;;;;;;;;3.67;3.00;;;;;24.52;48.63;100886.88;5037968;28;45470;-67
2022/09/07 07:58:25;;;;;;;;;3.67;2.00;;;;;24.58;48.95;100918.56;5037596;28;45603;-68
2022/09/07 08:00:51;;;;;;;;;3.00;2.67;;;;;24.46;49.37;100909.56;5037286;28;46499;-67
2022/09/07 08:03:17;;;;;;;;;4.67;2.00;;;;;23.44;49.82;100761.13;5035367;28;45222;-69
2022/09/07 08:05:42;;;;;;;;;4.67;2.00;;;;;24.06;49.89;100870.41;5034093;28;45299;-68
2022/09/07 08:08:07;;;;;;;;;3.00;3.00;;;;;24.34;49.92;100905.13;5019201;28;45538;-67
2022/09/07 08:10:34;;;;;;;;;5.33;4.33;;;;;24.44;49.85;100908.97;5015488;28;48689;-69
2022/09/07 08:12:59;;;;;;;;;5.00;5.00;;;;;24.61;49.49;100894.69;5018702;28;45548;-69
2022/09/07 08:15:24;;;;;;;;;3.67;3.00;;;;;24.77;49.24;100899.47;5018771;28;45781;-67
2022/09/07 08:17:50;;;;;;;;;4.33;3.00;;;;;24.93;48.86;100887.91;5018709;28;45292;-66
2022/09/07 08:20:15;;;;;;;;;5.00;3.00;;;;;25.17;48.29;100886.03;5018485;28;46471;-68
2022/09/07 08:22:41;;;;;;;;;6.33;4.67;;;;;25.31;47.94;100895.63;5021775;28;51306;-67
2022/09/07 08:25:08;;;;;;;;;4.00;4.00;;;;;25.41;47.89;100900.47;5019360;28;45375;-70
2022/09/07 08:27:33;;;;;;;;;6.00;6.00;;;;;25.48;47.94;100896.56;5017012;28;45475;-70
2022/09/07 08:29:59;;;;;;;;;2.67;2.33;;;;;25.57;47.60;100897.00;5025049;28;46403;-69
2022/09/07 08:32:25;;;;;;;;;5.67;4.00;;;;;25.28;46.82;100802.75;5038272;28;51640;-70
2022/09/07 08:34:50;;;;;;;;;4.33;3.67;;;;;26.05;46.57;100902.16;5037439;28;45725;-69
2022/09/07 08:37:16;;;;;;;;;3.67;3.33;;;;;26.07;46.70;100901.91;5037668;28;45397;-70
2022/09/07 08:39:42;;;;;;;;;6.00;4.00;;;;;26.30;46.32;100904.53;5037039;28;45368;-69
2022/09/07 08:42:17;;;;;;;;;4.67;4.00;;;;;26.38;45.50;100852.38;5038385;28;45276;-70
2022/09/07 08:45:02;;;;;;;;;6.33;4.67;;;;;27.00;44.97;100900.59;5038375;28;45405;-69
2022/09/07 08:47:48;;;;;;;;;6.67;2.33;;;;;27.37;44.53;100914.56;5023282;28;45425;-69
2022/09/07 08:50:22;;;;;;;;;4.00;4.00;;;;;27.61;43.22;100895.22;5018168;28;46909;-70
2022/09/07 08:52:54;;;;;;;;;3.00;1.33;;;;;27.66;43.43;100907.09;5018132;28;45488;-67
2022/09/07 08:55:30;;;;;;;;;4.00;3.00;;;;;27.79;43.23;100916.78;5018266;28;45465;-69
2022/09/07 08:58:06;;;;;;;;;2.00;2.00;;;;;27.60;42.86;100905.31;5016411;28;45191;-69
2022/09/07 09:00:31;;;;;;;;;4.33;3.00;;;;;27.82;42.91;100913.53;5018110;28;45706;-69
2022/09/07 09:02:58;;;;;;;;;4.33;3.67;;;;;27.93;42.10;100909.03;5018421;28;45318;-67
2022/09/07 09:05:35;;;;;;;;;3.33;2.67;;;;;27.47;42.67;100805.47;5018214;28;45498;-70
2022/09/07 09:08:23;;;;;;;;;5.67;3.00;;;;;28.27;41.72;100885.13;5018446;28;45455;-69
2022/09/07 09:10:57;;;;;;;;;2.00;1.33;;;;;28.31;41.80;100886.28;5019744;28;45311;-69
2022/09/07 09:13:44;;;;;;;;;3.67;2.67;;;;;28.41;41.84;100881.72;5017349;28;45574;-68
2022/09/07 09:16:17;;;;;;;;;2.33;2.00;;;;;28.42;41.80;100879.81;5017677;28;45379;-68
2022/09/07 09:19:22;;;;;;;;;3.67;3.33;;;;;28.28;41.72;100890.34;5017879;28;45297;-68
2022/09/07 09:21:47;;;;;;;;;4.67;3.67;;;;;28.31;41.29;100875.34;5018365;28;45652;-70
2022/09/07 09:24:18;;;;;;;;;6.33;5.33;;;;;28.66;41.10;100872.94;5017968;28;45370;-68
2022/09/07 09:26:49;;;;;;;;;8.00;5.00;;;;;28.74;40.48;100886.13;5018009;28;45524;-70
2022/09/07 09:29:18;;;;;;;;;6.33;6.33;;;;;28.93;40.40;100883.84;5018305;28;45499;-67
2022/09/07 09:31:44;;;;;;;;;6.00;5.00;;;;;28.89;39.98;100879.97;5017530;28;45712;-69
2022/09/07 09:34:16;;;;;;;;;3.33;3.00;;;;;28.82;40.20;100883.97;5017429;28;45397;-69
2022/09/07 09:36:49;;;;;;;;;4.33;2.00;;;;;28.77;40.06;100879.28;5017667;28;45272;-68
2022/09/07 09:39:27;;;;;;;;;5.00;2.33;;;;;29.10;40.16;100877.41;5017650;28;45371;-69
2022/09/07 09:41:55;;;;;;;;;5.33;4.00;;;;;28.85;38.92;100787.69;5017286;28;46125;-68
2022/09/07 09:44:21;;;;;;;;;4.33;4.00;;;;;29.97;38.77;100888.53;5017193;28;45448;-69
2022/09/07 09:46:51;;;;;;;;;2.00;2.00;;;;;30.54;36.93;100871.13;5017220;28;45552;-69
2022/09/07 09:49:22;;;;;;;;;4.33;2.00;;;;;31.00;35.64;100857.41;5032738;28;45429;-70
2022/09/07 09:51:51;;;;;;;;;4.33;4.33;;;;;31.21;34.80;100857.38;5032263;28;47817;-71
2022/09/07 09:54:27;;;;;;;;;4.00;2.67;;;;;30.78;35.81;100868.69;5016801;28;45467;-69
2022/09/07 09:56:53;;;;;;;;;3.33;3.00;;;;;30.00;36.26;100807.66;5017368;28;45313;-68
2022/09/07 09:59:22;;;;;;;;;5.33;4.33;;;;;29.73;37.40;100876.38;5017250;28;45439;-70
2022/09/07 10:01:49;;;;;;;;;3.67;3.00;;;;;29.10;38.04;100859.06;5016957;28;46255;-70
2022/09/07 10:04:22;;;;;;;;;4.67;2.00;;;;;28.89;38.96;100865.47;5031948;28;45344;-70
2022/09/07 10:07:12;;;;;;;;;5.33;4.00;;;;;28.45;39.44;100857.44;5017062;28;45321;-70
2022/09/07 10:09:41;;;;;;;;;3.00;3.00;;;;;28.15;40.53;100869.66;5019569;28;45499;-70
2022/09/07 10:12:21;;;;;;;;;3.67;3.67;;;;;28.06;40.49;100863.03;5036500;28;45677;-69
2022/09/07 10:14:46;;;;;;;;;4.00;4.00;;;;;27.97;40.66;100861.81;5036839;28;45235;-70
2022/09/07 10:17:37;;;;;;;;;5.00;3.33;;;;;27.85;41.49;100853.78;5037082;28;45365;-69
2022/09/07 10:20:14;;;;;;;;;3.00;3.00;;;;;27.75;41.60;100850.09;5037170;28;45561;-71
2022/09/07 10:22:42;;;;;;;;;4.00;2.33;;;;;27.44;42.08;100840.66;5035428;28;48713;-70
2022/09/07 10:25:44;;;;;;;;;4.00;3.00;;;;;27.47;42.01;100849.19;5035663;28;45474;-70
2022/09/07 10:28:13;;;;;;;;;6.33;3.00;;;;;27.35;42.32;100855.81;5044654;28;45405;-71
2022/09/07 10:30:47;;;;;;;;;5.33;3.00;;;;;27.24;42.68;100854.88;5035844;28;45528;-70
2022/09/07 10:33:23;;;;;;;;;4.00;3.67;;;;;27.05;42.87;100850.75;5035595;28;46462;-70
2022/09/07 10:35:58;;;;;;;;;5.67;5.67;;;;;26.77;43.65;100862.56;5035678;28;45734;-69
2022/09/07 10:38:29;;;;;;;;;3.00;3.00;;;;;26.71;43.62;100855.38;5022178;28;45579;-70
2022/09/07 10:41:08;;;;;;;;;7.00;3.33;;;;;26.44;44.17;100852.47;5034458;28;45470;-71
2022/09/07 10:43:48;;;;;;;;;2.33;1.67;;;;;26.50;44.26;100843.31;5025461;28;46003;-70
2022/09/07 10:46:32;;;;;;;;;4.00;3.00;;;;;26.40;44.57;100843.13;5024005;28;45258;-70
2022/09/07 10:49:23;;;;;;;;;6.33;2.67;;;;;26.34;44.74;100845.75;5025318;28;45494;-70
2022/09/07 10:51:57;;;;;;;;;3.33;2.00;;;;;26.17;45.31;100844.03;5034895;28;45515;-69
2022/09/07 10:54:45;;;;;;;;;2.00;2.00;;;;;26.17;45.38;100850.31;5045882;28;48447;-70
2022/09/07 10:57:14;;;;;;;;;2.00;2.00;;;;;25.94;45.66;100853.16;5034948;28;45570;-71
2022/09/07 10:59:54;;;;;;;;;6.00;4.67;;;;;25.87;46.16;100847.03;5026165;28;45303;-70
2022/09/07 11:02:37;;;;;;;;;5.00;4.00;;;;;25.83;46.46;100857.59;5021246;28;45427;-69
2022/09/07 11:05:14;;;;;;;;;5.33;5.33;;;;;25.88;46.09;100841.34;5035256;28;49006;-70
2022/09/07 11:08:03;;;;;;;;;3.33;3.00;;;;;25.99;45.85;100834.16;5037856;28;45428;-69
2022/09/07 11:10:40;;;;;;;;;4.00;3.00;;;;;26.21;45.27;100832.41;5036201;28;45391;-69
2022/09/07 11:13:11;;;;;;;;;3.00;2.67;;;;;26.29;44.62;100810.22;5036995;28;45277;-70
2022/09/07 11:15:55;;;;;;;;;3.00;3.00;;;;;26.02;44.26;100741.88;5027644;28;46310;-70
2022/09/07 11:18:49;;;;;;;;;5.00;2.33;;;;;26.73;43.40;100821.31;5036105;28;45493;-71
2022/09/07 11:21:18;;;;;;;;;2.67;2.67;;;;;26.68;42.22;100818.53;5036820;28;45602;-69
2022/09/07 11:23:56;;;;;;;;;2.00;2.00;;;;;26.31;41.35;100796.34;5041749;28;45510;-69
2022/09/07 11:26:22;;;;;;;;;1.00;1.00;;;;;26.37;41.37;100820.72;5019460;28;46121;-69
2022/09/07 11:28:59;;;;;;;;;4.67;3.00;;;;;26.29;41.07;100826.56;5019855;28;45812;-69
2022/09/07 11:31:43;;;;;;;;;3.00;3.00;;;;;26.27;41.46;100823.25;5020006;28;45404;-70
2022/09/07 11:34:29;;;;;;;;;3.00;1.00;;;;;26.33;41.43;100830.44;5020054;28;45253;-69
2022/09/07 11:37:01;;;;;;;;;4.00;3.00;;;;;26.28;41.41;100819.47;5019514;28;45754;-70
2022/09/07 11:39:50;;;;;;;;;3.33;2.00;;;;;26.20;41.80;100814.38;5019977;28;45354;-71
2022/09/07 11:42:25;;;;;;;;;3.00;3.00;;;;;26.16;41.69;100810.50;5018654;28;45534;-69